Strona główna
METAR-TAF:

METAR-TAF

Lotnisko :

Port lotniczy Logroño-Agoncillo

Logroño, Hiszpania

Szerokość geograficzna: 42-27N, Długość geograficzna: 002-20W, wysokość: 353 m

Aktualna obserwacja pogody

Raport powstał 43 minut temu, godzina 12:00 UTC
Wiatr 3 kt z kierunków zmiennych
Temperatura 27°C
Wilgotność 48%
Ciśnienie 1016 hPa
Widzialność 10 km lub więcej
Mało chmury na wysokości 3300 ft

METAR: LELO 171200Z VRB03KT 9999 FEW033 27/15 Q1016

czas: 14:43 (12:43 UTC)

Prognoza

Raport powstał 1 godzina i 43 minut temu, godzina 11:00 UTC
Prognoza ważna od 17 godzina 12 UTC do 17 godzina 21 UTC
Wiatr 5 kt z kierunków zmiennych
Widzialność 10 km lub więcej
Mało chmury na wysokości 3000 ft
Stopniowe zmiany
od 17 godzina 12 UTC do 17 godzina 14 UTC
Wiatr 12 kt od północ
Prawdopodobieństwo 40% :
Przejściowo
od 17 godzina 14 UTC do 17 godzina 21 UTC
Mało chmury na wysokości 4000 ft, Cumulusy wypiętrznone.

TAF: LELO 171100Z 1712/1721 VRB05KT 9999 FEW030 BECMG 1712/1714 35012KT PROB40 TEMPO 1714/1721 FEW040TCU

Obserwacja i prognoza pogody dla ponad 4000 lotnisk (raport METAR i TAF).

Dostępne stacje oznaczono żółtymi i czerwonymi punktami na mapie.

Najedź kursorem aby zobaczyć nazwę stacji.

Kliknij aby zobaczyć obserwacje i prognozy pogody.

Aby zmienić mapę: kliknij na zielony przycisk z czarnym krzyżykiem, aby powiększyć; na zielony przycisk z myślnikiem, aby pomniejszyć; na zielone strzałki, aby przejść do map sąsiednich.


METAR-TAF: